Time;durP1;ratioP1;P1;durP2;ratioP2;P2;SDS_P1;SDS_P2;PMS_P1;PMS_P2;Temp;Humidity;BMP_temperature;BMP_pressure;BME280_temperature;BME280_humidity;BME280_pressure;Samples;Min_cycle;Max_cycle;Signal;HPM_P1;HPM_P2
2021/01/12 00:00:24;;;;;;;16.70;8.85;;;;;;;10.12;64.06;100869.34;4920822;28;114191;-69
2021/01/12 00:02:52;;;;;;;16.63;8.80;;;;;;;10.12;64.14;100879.94;4898170;28;123498;-69
2021/01/12 00:05:19;;;;;;;12.65;8.70;;;;;;;10.12;63.99;100869.34;4916205;28;125561;-70
2021/01/12 00:07:47;;;;;;;12.68;8.25;;;;;;;10.11;64.30;100857.03;4931023;28;114608;-69
2021/01/12 00:10:14;;;;;;;15.95;8.23;;;;;;;10.12;64.31;100858.75;4918993;28;114666;-69
2021/01/12 00:12:41;;;;;;;12.27;8.15;;;;;;;10.12;64.32;100850.81;4913582;28;124293;-69
2021/01/12 00:15:08;;;;;;;11.90;8.02;;;;;;;10.14;64.15;100846.31;4936303;28;124232;-69
2021/01/12 00:17:35;;;;;;;10.02;7.75;;;;;;;10.13;64.29;100834.00;4934619;28;114581;-69
2021/01/12 00:20:05;;;;;;;11.60;7.22;;;;;;;10.13;64.03;100828.69;4933243;28;113484;-69
2021/01/12 00:22:32;;;;;;;10.05;6.88;;;;;;;10.15;64.63;100826.84;4914430;28;125641;-69
2021/01/12 00:24:59;;;;;;;11.20;7.10;;;;;;;10.15;64.15;100816.25;4913074;28;124267;-70
2021/01/12 00:27:26;;;;;;;10.82;6.70;;;;;;;10.15;64.06;100810.97;4933045;28;115646;-69
2021/01/12 00:29:52;;;;;;;10.43;6.63;;;;;;;10.15;63.95;100805.66;4933155;28;115207;-70
2021/01/12 00:32:27;;;;;;;10.23;6.65;;;;;;;10.13;64.21;100808.41;4915859;28;125184;-69
2021/01/12 00:34:55;;;;;;;9.35;6.65;;;;;;;10.16;64.41;100791.53;4931405;28;124093;-69
2021/01/12 00:37:27;;;;;;;12.57;6.57;;;;;;;10.16;64.18;100786.22;4934621;28;113843;-69
2021/01/12 00:39:54;;;;;;;10.75;6.00;;;;;;;10.17;64.08;100776.50;4933283;28;114277;-69
2021/01/12 00:42:21;;;;;;;12.75;6.80;;;;;;;10.16;64.27;100775.66;4936372;28;124082;-69
2021/01/12 00:44:48;;;;;;;10.90;5.90;;;;;;;10.17;64.29;100772.09;4937500;28;124234;-69
2021/01/12 00:47:14;;;;;;;9.82;6.40;;;;;;;10.16;64.21;100759.75;4934003;28;114357;-69
2021/01/12 00:49:41;;;;;;;11.88;5.88;;;;;;;10.17;64.52;100750.03;4935622;28;114266;-69
2021/01/12 00:52:10;;;;;;;7.35;5.47;;;;;;;10.16;64.56;100749.19;4918760;28;123360;-69
2021/01/12 00:54:37;;;;;;;7.00;5.43;;;;;;;10.18;64.32;100746.47;4937264;28;123839;-69
2021/01/12 00:57:04;;;;;;;8.77;5.60;;;;;;;10.18;64.26;100747.31;4936145;28;114353;-69
2021/01/12 00:59:32;;;;;;;9.38;5.80;;;;;;;10.18;64.28;100749.97;4919087;28;113444;-69
2021/01/12 01:02:04;;;;;;;7.32;5.63;;;;;;;10.19;64.28;100748.16;4935050;28;123853;-70
2021/01/12 01:04:32;;;;;;;8.60;5.43;;;;;;;10.21;64.26;100738.38;4931650;28;124668;-70
2021/01/12 01:06:58;;;;;;;10.02;5.40;;;;;;;10.21;64.47;100731.31;4904020;28;113671;-70
2021/01/12 01:09:25;;;;;;;9.98;5.63;;;;;;;10.21;64.29;100726.03;4937706;28;114262;-69
2021/01/12 01:11:51;;;;;;;7.28;4.85;;;;;;;10.22;64.57;100727.72;4938079;28;123962;-69
2021/01/12 01:14:19;;;;;;;6.97;4.88;;;;;;;10.23;64.39;100713.56;4934890;28;124062;-69
2021/01/12 01:16:46;;;;;;;8.90;5.15;;;;;;;10.24;64.61;100704.69;4938346;28;115022;-69
2021/01/12 01:19:13;;;;;;;8.10;5.10;;;;;;;10.24;64.43;100709.97;4934820;28;114981;-69
2021/01/12 01:21:40;;;;;;;7.90;5.07;;;;;;;10.24;64.56;100699.41;4934887;28;124033;-69
2021/01/12 01:24:08;;;;;;;6.32;4.72;;;;;;;10.25;64.51;100694.97;4932820;28;124795;-69
2021/01/12 01:26:35;;;;;;;7.00;4.90;;;;;;;10.25;64.66;100693.19;4922159;28;113485;-69
2021/01/12 01:29:03;;;;;;;6.30;4.90;;;;;;;10.25;64.54;100695.84;4936168;28;114119;-69
2021/01/12 01:31:39;;;;;;;7.32;4.60;;;;;;;10.25;64.71;100690.53;4934223;28;124557;-69
2021/01/12 01:34:06;;;;;;;7.60;4.30;;;;;;;10.27;64.33;100683.38;4931979;28;124390;-69
2021/01/12 01:36:33;;;;;;;6.75;4.60;;;;;;;10.28;64.84;100686.88;4938388;28;114309;-69
2021/01/12 01:38:59;;;;;;;7.78;4.75;;;;;;;10.28;65.02;100685.13;4933556;28;113697;-69
2021/01/12 01:41:26;;;;;;;8.38;4.57;;;;;;;10.29;64.61;100676.22;4933040;28;124173;-69
2021/01/12 01:43:52;;;;;;;7.30;4.70;;;;;;;10.30;64.80;100683.28;4936552;28;124767;-69
2021/01/12 01:46:20;;;;;;;6.68;4.47;;;;;;;10.32;64.73;100676.13;4934941;28;113975;-70
2021/01/12 01:48:47;;;;;;;6.53;4.45;;;;;;;10.32;64.65;100660.25;4935263;28;114106;-69
2021/01/12 01:51:15;;;;;;;5.57;4.03;;;;;;;10.33;64.80;100667.25;4916916;28;124454;-69
2021/01/12 01:53:43;;;;;;;6.43;4.38;;;;;;;10.34;64.89;100657.53;4918476;28;123805;-69
2021/01/12 01:56:10;;;;;;;6.43;4.28;;;;;;;10.36;64.65;100660.06;4933122;28;114987;-69
2021/01/12 01:58:41;;;;;;;9.02;4.40;;;;;;;10.36;64.83;100654.78;4936718;28;113917;-69
2021/01/12 02:01:09;;;;;;;5.30;4.13;;;;;;;10.38;65.00;100650.28;4919304;28;123241;-69
2021/01/12 02:03:45;;;;;;;5.28;4.18;;;;;;;10.37;64.93;100645.94;4932349;28;123699;-69
2021/01/12 02:06:17;;;;;;;7.60;4.50;;;;;;;10.38;65.14;100642.34;4933039;28;115540;-69
2021/01/12 02:09:00;;;;;;;6.35;4.30;;;;;;;10.38;65.01;100631.75;4935872;28;114983;-69
2021/01/12 02:11:30;;;;;;;7.38;4.43;;;;;;;10.39;65.14;100638.78;4934570;28;124676;-70
2021/01/12 02:14:04;;;;;;;5.43;4.20;;;;;;;10.40;64.98;100635.22;4936076;28;124663;-69
2021/01/12 02:16:33;;;;;;;5.90;4.30;;;;;;;10.41;65.14;100632.47;4931387;28;113497;-69
2021/01/12 02:19:03;;;;;;;5.53;4.28;;;;;;;10.42;65.05;100628.03;4916613;28;113265;-69
2021/01/12 02:21:39;;;;;;;6.10;4.32;;;;;;;10.43;65.27;100619.16;4934889;28;124451;-69
2021/01/12 02:24:08;;;;;;;9.15;4.50;;;;;;;10.45;65.23;100627.88;4931728;28;124188;-69
2021/01/12 02:26:35;;;;;;;5.95;4.40;;;;;;;10.47;65.18;100618.06;4920471;28;113162;-69
2021/01/12 02:29:02;;;;;;;5.43;4.40;;;;;;;10.48;65.02;100618.00;4935287;28;113848;-69
2021/01/12 02:31:29;;;;;;;6.28;4.68;;;;;;;10.49;65.02;100592.38;4936498;28;124251;-69
2021/01/12 02:34:01;;;;;;;6.97;4.40;;;;;;;10.50;65.12;100588.81;4934233;28;124830;-69
2021/01/12 02:36:29;;;;;;;7.15;4.60;;;;;;;10.51;65.31;100586.09;4914276;28;114375;-69
2021/01/12 02:38:57;;;;;;;6.55;4.90;;;;;;;10.52;65.21;100589.59;4934036;28;113860;-69
2021/01/12 02:41:32;;;;;;;4.97;4.40;;;;;;;10.54;65.23;100595.66;4919777;28;123678;-69
2021/01/12 02:44:00;;;;;;;6.30;4.93;;;;;;;10.54;65.11;100579.78;4933445;28;124330;-69
2021/01/12 02:46:26;;;;;;;7.00;4.60;;;;;;;10.54;65.23;100585.06;4935055;28;114084;-70
2021/01/12 02:48:53;;;;;;;5.82;4.68;;;;;;;10.55;65.18;100581.50;4932991;28;113782;-70
2021/01/12 02:51:20;;;;;;;7.05;4.53;;;;;;;10.55;65.50;100586.78;4935233;28;124229;-69
2021/01/12 02:53:47;;;;;;;6.43;4.55;;;;;;;10.56;65.35;100577.91;4932300;28;96843;-70
2021/01/12 02:56:22;;;;;;;5.43;4.55;;;;;;;10.58;65.26;100575.19;4933326;28;115405;-70
2021/01/12 02:58:49;;;;;;;6.78;4.78;;;;;;;10.59;65.36;100571.63;4918599;28;115290;-70
2021/01/12 03:01:16;;;;;;;6.20;4.60;;;;;;;10.59;65.38;100567.16;4936777;28;124358;-70
2021/01/12 03:03:43;;;;;;;5.90;4.82;;;;;;;10.60;65.51;100563.56;4915984;28;122884;-69
2021/01/12 03:06:09;;;;;;;7.55;4.93;;;;;;;10.60;65.48;100552.97;4935327;28;115077;-70
2021/01/12 03:08:36;;;;;;;7.65;4.90;;;;;;;10.62;65.31;100550.25;4932160;28;114216;-70
2021/01/12 03:11:02;;;;;;;6.70;4.45;;;;;;;10.63;65.45;100536.94;4932198;28;127006;-70
2021/01/12 03:13:29;;;;;;;6.85;4.90;;;;;;;10.64;65.40;100541.31;4934113;28;124217;-70
2021/01/12 03:15:55;;;;;;;7.45;4.93;;;;;;;10.66;65.50;100536.81;4936422;28;114740;-70
2021/01/12 03:18:22;;;;;;;6.45;4.70;;;;;;;10.68;65.54;100540.22;4922144;28;113301;-70
2021/01/12 03:20:49;;;;;;;6.05;4.75;;;;;;;10.69;65.58;100535.78;4934255;28;123790;-70
2021/01/12 03:23:15;;;;;;;5.53;4.47;;;;;;;10.70;65.44;100538.34;4914670;28;124714;-70
2021/01/12 03:25:42;;;;;;;6.03;4.57;;;;;;;10.71;65.47;100524.16;4933040;28;114866;-70
2021/01/12 03:28:08;;;;;;;5.93;4.60;;;;;;;10.71;65.64;100513.56;4917046;28;113936;-70
2021/01/12 03:30:35;;;;;;;6.50;5.07;;;;;;;10.73;65.54;100512.66;4900576;28;123224;-70
2021/01/12 03:33:01;;;;;;;6.57;5.10;;;;;;;10.74;65.81;100503.75;4935536;28;124486;-69
2021/01/12 03:35:29;;;;;;;5.65;4.75;;;;;;;10.77;65.53;100500.97;4934236;28;114642;-70
2021/01/12 03:37:55;;;;;;;7.22;5.13;;;;;;;10.76;65.59;100500.09;4934135;28;114052;-70
2021/01/12 03:40:22;;;;;;;6.38;4.75;;;;;;;10.79;65.51;100493.78;4935303;28;124773;-70
2021/01/12 03:42:48;;;;;;;5.78;5.18;;;;;;;10.80;65.70;100495.50;4933954;28;126216;-70
2021/01/12 03:45:15;;;;;;;6.22;5.40;;;;;;;10.81;65.77;100494.56;4934774;28;114838;-69
2021/01/12 03:47:41;;;;;;;6.63;5.55;;;;;;;10.81;65.34;100481.31;4914629;28;114953;-69
2021/01/12 03:50:09;;;;;;;6.15;4.82;;;;;;;10.83;65.48;100490.03;4933522;28;124090;-69
2021/01/12 03:52:36;;;;;;;5.28;4.75;;;;;;;10.83;65.91;100484.72;4914148;28;123909;-69
2021/01/12 03:55:04;;;;;;;4.93;4.38;;;;;;;10.83;65.50;100475.00;4919281;28;114060;-70
2021/01/12 03:57:31;;;;;;;7.97;4.85;;;;;;;10.84;65.73;100475.88;4917342;28;114228;-69
2021/01/12 03:59:57;;;;;;;5.47;4.32;;;;;;;10.84;65.67;100475.88;4932531;28;124095;-69
2021/01/12 04:02:24;;;;;;;5.78;4.78;;;;;;;10.86;65.81;100463.41;4916303;28;122651;-69
2021/01/12 04:04:55;;;;;;;4.72;4.18;;;;;;;10.87;65.70;100465.13;4915439;28;113967;-69
2021/01/12 04:07:22;;;;;;;5.65;4.28;;;;;;;10.87;65.57;100459.81;4902969;28;113965;-69
2021/01/12 04:09:50;;;;;;;5.88;4.60;;;;;;;10.89;66.02;100463.25;4914175;28;123038;-69
2021/01/12 04:12:17;;;;;;;5.30;4.40;;;;;;;10.89;66.01;100450.00;4935407;28;124365;-69
2021/01/12 04:14:44;;;;;;;5.20;4.70;;;;;;;10.90;65.71;100449.03;4934345;28;114509;-70
2021/01/12 04:17:10;;;;;;;6.15;4.65;;;;;;;10.91;65.52;100450.78;4938399;28;116024;-69
2021/01/12 04:19:37;;;;;;;6.88;4.90;;;;;;;10.93;65.84;100438.28;4921153;28;123039;-69
2021/01/12 04:22:03;;;;;;;7.60;5.30;;;;;;;10.93;65.75;100446.25;4918578;28;124792;-69
2021/01/12 04:24:30;;;;;;;6.60;5.45;;;;;;;10.94;65.80;100440.00;4938877;28;114768;-69
2021/01/12 04:26:57;;;;;;;8.10;5.65;;;;;;;10.93;65.81;100438.28;4939657;28;114135;-69
2021/01/12 04:29:23;;;;;;;7.20;5.68;;;;;;;10.95;65.92;100431.13;4937379;28;124799;-70
2021/01/12 04:31:50;;;;;;;7.00;5.57;;;;;;;10.95;66.16;100425.81;4938339;28;124547;-69
2021/01/12 04:34:17;;;;;;;6.60;5.45;;;;;;;10.97;65.74;100429.25;4931712;28;115016;-69
2021/01/12 04:36:43;;;;;;;8.30;5.53;;;;;;;10.98;65.71;100414.19;4955056;22;114943;-75
2021/01/12 04:39:10;;;;;;;7.55;5.78;;;;;;;10.99;65.97;100416.75;4920542;28;122543;-75
2021/01/12 04:41:36;;;;;;;7.18;5.88;;;;;;;10.99;65.86;100411.47;4906635;28;122844;-75
2021/01/12 04:44:03;;;;;;;6.47;5.68;;;;;;;11.01;66.17;100404.28;4940647;28;114057;-75
2021/01/12 04:46:30;;;;;;;7.07;5.88;;;;;;;11.01;65.98;100398.13;4906089;28;113072;-75
2021/01/12 04:48:57;;;;;;;8.07;6.55;;;;;;;11.03;65.99;100396.25;4908843;28;125022;-75
2021/01/12 04:51:24;;;;;;;8.45;6.70;;;;;;;11.04;65.88;100388.22;4940627;28;124561;-76
2021/01/12 04:53:51;;;;;;;7.00;6.25;;;;;;;11.06;66.05;100391.66;4936325;28;114566;-75
2021/01/12 04:56:20;;;;;;;8.55;6.97;;;;;;;11.07;66.15;100388.03;4941879;28;113794;-75
2021/01/12 04:58:48;;;;;;;9.05;7.13;;;;;;;11.09;66.12;100386.19;4942405;28;124256;-76
2021/01/12 05:01:20;;;;;;;8.77;7.65;;;;;;;11.09;66.00;100386.19;4924480;28;123387;-75
2021/01/12 05:03:49;;;;;;;9.32;7.47;;;;;;;11.11;66.15;100383.44;4922848;28;113306;-75
2021/01/12 05:06:18;;;;;;;9.57;8.00;;;;;;;11.12;66.04;100384.31;4939209;28;113912;-75
2021/01/12 05:08:46;;;;;;;9.85;8.23;;;;;;;11.13;66.33;100380.69;4904453;28;122504;-76
2021/01/12 05:11:13;;;;;;;10.85;8.13;;;;;;;11.14;66.22;100367.38;4924459;28;123164;-75
2021/01/12 05:13:43;;;;;;;10.82;8.75;;;;;;;11.15;66.19;100373.53;4945402;28;114234;-76
2021/01/12 05:16:11;;;;;;;10.38;8.65;;;;;;;11.17;66.34;100371.63;4942478;28;113909;-75
2021/01/12 05:18:41;;;;;;;12.88;8.88;;;;;;;11.17;66.36;100366.34;4916837;28;124269;-76
2021/01/12 05:21:12;;;;;;;10.02;8.68;;;;;;;11.21;66.20;100367.91;4936431;28;124493;-75
2021/01/12 05:23:49;;;;;;;11.13;9.00;;;;;;;11.22;66.23;100359.84;4920441;28;114477;-75
2021/01/12 05:26:18;;;;;;;12.68;9.40;;;;;;;11.25;66.13;100358.84;4939025;28;114907;-76
2021/01/12 05:28:45;;;;;;;11.77;9.20;;;;;;;11.28;66.09;100353.34;4937120;28;123750;-76
2021/01/12 05:31:13;;;;;;;12.90;9.38;;;;;;;11.29;66.18;100350.59;4921070;28;123163;-75
2021/01/12 05:33:42;;;;;;;13.20;9.13;;;;;;;11.31;66.20;100347.88;4946365;28;114187;-75
2021/01/12 05:36:10;;;;;;;13.13;9.05;;;;;;;11.34;66.10;100347.72;4945193;28;111934;-75
2021/01/12 05:38:37;;;;;;;10.90;8.48;;;;;;;11.34;65.86;100342.41;4921129;28;123718;-75
2021/01/12 05:41:04;;;;;;;11.98;8.90;;;;;;;11.35;65.96;100337.97;4943711;28;123995;-75
2021/01/12 05:43:37;;;;;;;11.75;8.25;;;;;;;11.35;66.20;100336.16;4943377;28;114399;-75
2021/01/12 05:46:08;;;;;;;8.63;6.53;;;;;;;11.37;66.21;100336.06;4922647;28;114529;-75
2021/01/12 05:48:37;;;;;;;8.20;6.72;;;;;;;11.39;66.44;100329.72;4939664;28;123277;-75
2021/01/12 05:51:06;;;;;;;8.07;5.53;;;;;;;11.41;66.52;100338.44;4940948;28;123670;-75
2021/01/12 05:53:50;;;;;;;7.93;5.85;;;;;;;11.42;66.24;100334.88;4923492;28;112438;-75
2021/01/12 05:56:24;;;;;;;6.47;5.00;;;;;;;11.45;66.42;100326.75;4921315;28;113255;-76
2021/01/12 05:58:54;;;;;;;8.50;4.53;;;;;;;11.46;66.32;100331.09;4922050;28;123927;-75
2021/01/12 06:01:33;;;;;;;5.97;4.45;;;;;;;11.48;66.31;100328.38;4940195;28;124673;-75
2021/01/12 06:04:07;;;;;;;6.82;4.40;;;;;;;11.49;66.37;100330.94;4945599;28;114354;-76
2021/01/12 06:06:36;;;;;;;6.47;3.78;;;;;;;11.50;66.17;100332.63;4921957;28;113259;-75
2021/01/12 06:09:03;;;;;;;5.85;3.75;;;;;;;11.52;66.16;100329.03;4938989;28;123811;-77
2021/01/12 06:11:34;;;;;;;6.63;3.78;;;;;;;11.54;66.43;100324.50;4928503;28;122932;-75
2021/01/12 06:14:08;;;;;;;7.22;3.80;;;;;;;11.55;66.46;100320.94;4941012;28;115093;-75
2021/01/12 06:16:36;;;;;;;6.18;3.50;;;;;;;11.58;66.25;100320.72;4932513;28;113087;-75
2021/01/12 06:19:12;;;;;;;6.18;3.55;;;;;;;11.59;66.31;100325.09;4917770;28;123650;-75
2021/01/12 06:21:54;;;;;;;7.13;3.13;;;;;;;11.60;66.41;100321.50;4919743;28;124003;-76
2021/01/12 06:24:40;;;;;;;5.05;3.25;;;;;;;11.62;66.28;100319.59;4936259;28;114637;-75
2021/01/12 06:27:14;;;;;;;6.32;3.70;;;;;;;11.64;66.30;100328.31;4903426;28;113021;-75
2021/01/12 06:29:43;;;;;;;6.72;3.75;;;;;;;11.63;66.39;100322.16;4939520;28;123817;-76
2021/01/12 06:32:14;;;;;;;4.85;3.35;;;;;;;11.64;66.19;100312.41;4941693;28;123024;-76
2021/01/12 06:34:40;;;;;;;6.63;3.78;;;;;;;11.65;66.29;100319.44;4902282;28;114908;-76
2021/01/12 06:37:11;;;;;;;7.70;3.55;;;;;;;11.66;66.25;100316.69;4939332;28;114663;-75
2021/01/12 06:39:41;;;;;;;5.78;3.78;;;;;;;11.68;66.19;100316.63;4927550;28;124253;-76
2021/01/12 06:42:10;;;;;;;6.43;3.13;;;;;;;11.70;66.29;100320.03;4936705;28;123499;-75
2021/01/12 06:44:38;;;;;;;8.02;3.22;;;;;;;11.72;66.27;100319.94;4933684;28;112898;-75
2021/01/12 06:47:06;;;;;;;8.20;3.03;;;;;;;11.73;66.64;100317.19;4937152;28;114353;-75
2021/01/12 06:49:33;;;;;;;7.40;3.05;;;;;;;11.75;66.39;100319.75;4937152;28;124591;-75
2021/01/12 06:52:04;;;;;;;5.78;2.95;;;;;;;11.75;66.34;100331.22;4903139;28;123128;-76
2021/01/12 06:54:35;;;;;;;7.88;2.80;;;;;;;11.75;66.43;100336.50;4926730;28;114299;-75
2021/01/12 06:57:07;;;;;;;7.53;2.78;;;;;;;11.76;66.37;100348.84;4940601;28;114899;-75
2021/01/12 06:59:39;;;;;;;6.43;3.22;;;;;;;11.76;66.37;100343.53;4941044;28;123457;-75
2021/01/12 07:02:30;;;;;;;7.55;2.78;;;;;;;11.76;66.42;100337.38;4938918;28;123576;-76
2021/01/12 07:05:09;;;;;;;5.20;2.85;;;;;;;11.78;66.18;100341.66;4913925;28;114631;-76
2021/01/12 07:07:46;;;;;;;6.57;3.05;;;;;;;11.80;66.08;100339.75;4917905;28;114385;-76
2021/01/12 07:10:13;;;;;;;7.63;2.67;;;;;;;11.79;66.13;100348.69;4942296;28;124017;-77
2021/01/12 07:12:41;;;;;;;7.63;2.90;;;;;;;11.80;66.04;100344.22;4937688;28;123432;-77
2021/01/12 07:15:11;;;;;;;5.45;2.65;;;;;;;11.81;66.02;100352.09;4918063;28;113304;-77
2021/01/12 07:17:41;;;;;;;5.72;2.80;;;;;;;11.79;66.10;100346.03;4940389;28;113849;-78
2021/01/12 07:20:27;;;;;;;5.57;2.75;;;;;;;11.78;65.92;100346.97;4944251;28;123858;-77
2021/01/12 07:23:00;;;;;;;6.43;2.85;;;;;;;11.77;65.89;100350.56;4937974;28;124714;-77
2021/01/12 07:25:28;;;;;;;7.47;3.38;;;;;;;11.76;65.84;100348.84;4942189;28;114681;-77
2021/01/12 07:28:13;;;;;;;5.80;3.00;;;;;;;11.76;65.71;100353.31;4904173;28;112814;-77
2021/01/12 07:30:48;;;;;;;6.68;3.00;;;;;;;11.74;65.85;100350.75;4923753;28;123657;-78
2021/01/12 07:33:25;;;;;;;7.70;3.77;;;;;;;11.73;65.71;100367.59;4931895;28;124000;-77
2021/01/12 07:35:54;;;;;;;8.43;3.15;;;;;;;11.71;65.67;100361.50;4928180;28;113904;-77
2021/01/12 07:38:24;;;;;;;10.18;3.22;;;;;;;11.70;65.81;100365.13;4925882;28;113701;-77
2021/01/12 07:40:56;;;;;;;8.68;2.72;;;;;;;11.67;65.61;100366.13;4928849;28;123749;-77
2021/01/12 07:43:24;;;;;;;8.18;2.40;;;;;;;11.67;65.58;100378.56;4926793;28;123884;-78
2021/01/12 07:45:53;;;;;;;5.30;2.40;;;;;;;11.65;65.49;100372.50;4938870;28;114198;-78
2021/01/12 07:48:21;;;;;;;3.78;2.00;;;;;;;11.63;65.63;100391.13;4924824;28;113917;-77
2021/01/12 07:50:50;;;;;;;5.35;2.40;;;;;;;11.63;65.67;100395.59;4907198;28;123674;-77
2021/01/12 07:53:18;;;;;;;6.70;2.50;;;;;;;11.61;65.83;100397.47;4943201;28;123787;-77
2021/01/12 07:55:46;;;;;;;6.97;2.33;;;;;;;11.60;65.47;100395.75;4950938;28;116045;-77
2021/01/12 07:58:14;;;;;;;6.70;2.60;;;;;;;11.58;65.57;100402.94;4941827;28;115532;-77
2021/01/12 08:00:42;;;;;;;9.70;2.75;;;;;;;11.58;65.49;100408.25;4945501;28;124284;-77
2021/01/12 08:03:09;;;;;;;4.75;2.60;;;;;;;11.56;65.65;100407.50;4941513;28;123664;-77
2021/01/12 08:05:35;;;;;;;6.38;2.95;;;;;;;11.54;65.58;100417.31;4927368;28;113676;-77
2021/01/12 08:08:07;;;;;;;7.63;2.40;;;;;;;11.52;65.74;100419.22;4944154;28;113714;-77
2021/01/12 08:10:36;;;;;;;5.28;2.30;;;;;;;11.48;65.51;100419.38;4929812;28;123353;-77
2021/01/12 08:13:13;;;;;;;5.65;2.60;;;;;;;11.45;65.52;100427.53;4920859;28;124016;-77
2021/01/12 08:15:44;;;;;;;4.13;2.30;;;;;;;11.40;65.68;100426.91;4938115;28;113421;-77
2021/01/12 08:18:14;;;;;;;4.65;2.40;;;;;;;11.36;65.60;100435.97;4930854;28;113894;-78
2021/01/12 08:20:43;;;;;;;4.60;1.90;;;;;;;11.33;65.58;100438.78;4932195;28;121825;-77
2021/01/12 08:23:19;;;;;;;4.85;2.30;;;;;;;11.32;65.64;100433.56;4918107;28;122996;-77
2021/01/12 08:25:46;;;;;;;4.72;2.20;;;;;;;11.28;65.73;100435.53;4930468;28;114284;-77
2021/01/12 08:28:14;;;;;;;4.00;2.10;;;;;;;11.26;65.60;100434.75;4926621;28;113799;-77
2021/01/12 08:30:41;;;;;;;3.83;1.80;;;;;;;11.24;65.64;100436.63;4942837;28;123921;-77
2021/01/12 08:33:20;;;;;;;3.30;2.10;;;;;;;11.21;65.63;100437.66;4922616;28;124821;-77
2021/01/12 08:36:08;;;;;;;6.75;2.00;;;;;;;11.19;65.38;100438.66;4937687;28;114785;-77
2021/01/12 08:38:41;;;;;;;3.72;1.52;;;;;;;11.19;65.61;100449.28;4919197;28;113455;-76
2021/01/12 08:41:10;;;;;;;2.72;1.30;;;;;;;11.18;65.37;100442.28;4913201;28;123153;-77
2021/01/12 08:43:39;;;;;;;4.22;1.25;;;;;;;11.17;65.46;100448.50;4948410;28;124729;-76
2021/01/12 08:46:06;;;;;;;5.32;1.50;;;;;;;11.17;65.60;100448.50;4950197;28;114221;-77
2021/01/12 08:48:34;;;;;;;4.05;1.50;;;;;;;11.15;65.59;100463.63;4952596;28;113486;-76
2021/01/12 08:51:12;;;;;;;2.80;1.42;;;;;;;11.12;65.22;100453.22;4929350;28;123684;-77
2021/01/12 08:53:39;;;;;;;5.03;1.60;;;;;;;11.12;65.18;100469.13;4937011;28;123385;-77
2021/01/12 08:56:09;;;;;;;3.70;1.50;;;;;;;11.10;65.66;100469.19;4933924;28;112909;-77
2021/01/12 08:58:37;;;;;;;6.13;1.75;;;;;;;11.10;65.41;100478.00;4948428;28;113394;-77
2021/01/12 09:01:04;;;;;;;2.80;1.38;;;;;;;11.09;65.32;100481.59;4940041;28;123149;-78
2021/01/12 09:03:32;;;;;;;3.78;1.45;;;;;;;11.08;65.43;100482.53;4941429;28;122670;-78
2021/01/12 09:06:00;;;;;;;6.90;1.63;;;;;;;11.09;65.50;100494.84;4937743;28;114247;-78
2021/01/12 09:08:27;;;;;;;6.65;1.92;;;;;;;11.08;64.96;100495.78;4941719;28;114213;-78
2021/01/12 09:10:54;;;;;;;5.00;2.03;;;;;;;11.09;65.60;100497.50;4925649;28;124103;-79
2021/01/12 09:13:28;;;;;;;8.43;2.42;;;;;;;11.07;65.52;100504.66;4926822;28;124725;-78
2021/01/12 09:15:55;;;;;;;8.90;2.80;;;;;;;11.09;65.65;100513.41;4945761;28;113716;-78
2021/01/12 09:18:26;;;;;;;9.32;3.10;;;;;;;11.08;65.59;100514.31;4936778;28;114115;-78
2021/01/12 09:20:59;;;;;;;7.22;3.30;;;;;;;11.08;65.59;100513.47;4941236;28;124960;-78
2021/01/12 09:23:26;;;;;;;7.32;3.33;;;;;;;11.08;65.82;100526.72;4945181;28;123669;-79
2021/01/12 09:26:03;;;;;;;10.93;3.35;;;;;;;11.06;65.64;100534.75;4929160;28;115493;-78
2021/01/12 09:28:32;;;;;;;12.18;3.13;;;;;;;11.04;65.63;100544.59;4936299;28;113263;-78
2021/01/12 09:31:02;;;;;;;5.70;2.97;;;;;;;11.02;65.56;100549.09;4952750;28;124095;-78
2021/01/12 09:33:29;;;;;;;6.60;3.28;;;;;;;11.00;65.52;100561.59;4962231;28;124342;-78
2021/01/12 09:36:06;;;;;;;6.15;3.03;;;;;;;10.99;65.78;100565.16;4953525;28;114385;-79
2021/01/12 09:38:41;;;;;;;6.40;3.25;;;;;;;10.97;65.77;100572.31;4936581;28;115524;-78
2021/01/12 09:41:09;;;;;;;6.40;2.40;;;;;;;10.95;65.43;100579.50;4936530;28;123309;-78
2021/01/12 09:43:36;;;;;;;4.97;2.33;;;;;;;10.93;65.29;100577.88;4919433;28;122641;-78
2021/01/12 09:46:04;;;;;;;2.78;1.95;;;;;;;10.88;65.04;100596.63;4937434;28;114079;-78
2021/01/12 09:48:32;;;;;;;3.97;1.92;;;;;;;10.83;64.79;100602.19;4923159;28;113971;-78
2021/01/12 09:50:59;;;;;;;5.28;2.17;;;;;;;10.77;64.42;100606.91;4946232;28;123745;-78
2021/01/12 09:53:26;;;;;;;4.00;1.90;;;;;;;10.70;64.41;100609.88;4947678;28;123798;-78
2021/01/12 09:55:53;;;;;;;3.08;1.90;;;;;;;10.64;64.63;100612.84;4930470;28;114756;-78
2021/01/12 09:58:25;;;;;;;5.13;1.73;;;;;;;10.59;64.15;100624.59;4937655;28;114162;-78
2021/01/12 10:00:52;;;;;;;4.43;1.67;;;;;;;10.53;64.46;100633.69;4925441;28;124305;-78
2021/01/12 10:03:19;;;;;;;3.58;1.58;;;;;;;10.49;64.06;100640.03;4938727;28;122404;-78
2021/01/12 10:05:45;;;;;;;2.70;1.80;;;;;;;10.43;64.15;100640.34;4949559;28;115007;-78
2021/01/12 10:08:12;;;;;;;3.25;1.33;;;;;;;10.41;64.26;100652.78;4958327;28;114151;-78
2021/01/12 10:10:39;;;;;;;4.63;1.40;;;;;;;10.38;64.42;100652.91;4940085;28;123629;-78
2021/01/12 10:13:05;;;;;;;1.73;1.45;;;;;;;10.36;64.38;100665.38;4953120;28;124775;-78
2021/01/12 10:15:32;;;;;;;4.28;1.30;;;;;;;10.36;64.32;100675.97;4939281;28;114339;-78
2021/01/12 10:17:59;;;;;;;3.78;1.42;;;;;;;10.36;64.42;100681.25;4935438;28;113073;-78
2021/01/12 10:20:26;;;;;;;4.57;1.58;;;;;;;10.36;64.26;100689.19;4935542;28;123171;-78
2021/01/12 10:22:53;;;;;;;5.40;1.52;;;;;;;10.36;64.27;100683.91;4936234;28;124023;-78
2021/01/12 10:25:20;;;;;;;5.18;1.73;;;;;;;10.37;64.38;100693.59;4945256;28;116830;-78
2021/01/12 10:27:47;;;;;;;5.57;2.03;;;;;;;10.38;64.19;100695.28;4949306;28;115036;-78
2021/01/12 10:30:15;;;;;;;7.50;2.13;;;;;;;10.38;64.14;100700.56;4935878;28;124756;-78
2021/01/12 10:32:46;;;;;;;5.43;2.25;;;;;;;10.37;64.21;100693.59;4932005;28;122966;-78
2021/01/12 10:35:14;;;;;;;4.03;2.00;;;;;;;10.39;64.33;100702.31;4925790;28;113614;-79
2021/01/12 10:37:43;;;;;;;5.18;1.90;;;;;;;10.42;64.07;100696.88;4928351;28;112746;-78
2021/01/12 10:40:11;;;;;;;8.15;2.05;;;;;;;10.44;64.25;100700.31;4932569;28;124310;-79
2021/01/12 10:42:44;;;;;;;4.70;1.92;;;;;;;10.46;64.35;100704.59;4946703;28;124147;-78
2021/01/12 10:45:13;;;;;;;6.25;2.20;;;;;;;10.50;64.18;100716.75;4929449;28;114404;-77
2021/01/12 10:47:44;;;;;;;5.30;2.00;;;;;;;10.54;64.12;100722.75;4932508;28;113471;-77
2021/01/12 10:50:15;;;;;;;6.47;1.58;;;;;;;10.56;64.09;100720.91;4932904;28;124155;-78
2021/01/12 10:52:42;;;;;;;6.90;1.60;;;;;;;10.55;63.87;100719.19;4929229;28;124368;-78
2021/01/12 10:55:09;;;;;;;5.90;1.40;;;;;;;10.55;63.69;100729.78;4930646;28;114495;-77
2021/01/12 10:57:37;;;;;;;9.68;1.60;;;;;;;10.56;63.28;100734.16;4932034;28;114180;-77
2021/01/12 11:00:05;;;;;;;6.95;1.30;;;;;;;10.54;63.43;100736.00;4949691;28;123598;-79
2021/01/12 11:02:33;;;;;;;4.88;1.10;;;;;;;10.54;63.06;100741.31;4931278;28;124064;-78
2021/01/12 11:05:00;;;;;;;5.10;1.35;;;;;;;10.53;63.07;100736.97;4930421;28;115272;-77
2021/01/12 11:07:29;;;;;;;5.65;1.52;;;;;;;10.53;62.87;100742.25;4944546;28;113940;-77
2021/01/12 11:09:58;;;;;;;5.30;1.40;;;;;;;10.54;62.89;100749.25;4941586;28;124094;-77
2021/01/12 11:12:25;;;;;;;4.00;1.15;;;;;;;10.54;62.56;100754.53;4939776;28;122853;-78
2021/01/12 11:14:53;;;;;;;5.93;1.05;;;;;;;10.52;62.05;100751.13;4936803;28;114630;-77
2021/01/12 11:17:19;;;;;;;6.97;1.20;;;;;;;10.49;62.02;100746.81;4929562;28;114835;-77
2021/01/12 11:19:47;;;;;;;5.63;0.90;;;;;;;10.46;62.08;100751.41;4925978;28;124035;-78
2021/01/12 11:22:14;;;;;;;7.72;1.33;;;;;;;10.44;62.31;100755.91;4931956;28;123888;-77
2021/01/12 11:24:40;;;;;;;4.13;1.20;;;;;;;10.42;61.91;100763.06;4932429;28;113899;-77